Wetterdaten: Woche 22.11.04 - 28.11.04 (KW48)
Datum Zeit Temperatur Luftfeuchte Luftdruck Niederschlag Wind Richtung Taupunkt Windchill
22.11.2004 00:00 1.1 C 93 % 1027.2 hPa 0.3 l/m 0.0 km/h (0 Bft) N 0.1 C 1.1 C
22.11.2004 01:00 1.3 C 95 % 1026.7 hPa 0.3 l/m 0.2 km/h (0 Bft) S 0.5 C 1.3 C
22.11.2004 02:00 1.7 C 96 % 1026.7 hPa 0.0 l/m 0.0 km/h (0 Bft) N 1.1 C 1.7 C
22.11.2004 03:00 2.1 C 97 % 1026.6 hPa 0.3 l/m 0.0 km/h (0 Bft) N 1.6 C 2.1 C
22.11.2004 04:00 2.4 C 98 % 1026.6 hPa 0.0 l/m 0.0 km/h (0 Bft) N 2.2 C 2.4 C
22.11.2004 05:00 3.4 C 99 % 1025.8 hPa 0.0 l/m 1.3 km/h (1 Bft) S-SO 3.2 C 3.2 C
22.11.2004 06:00 3.1 C 98 % 1026.4 hPa 0.0 l/m 0.0 km/h (0 Bft) N 2.8 C 3.1 C
22.11.2004 07:00 3.5 C 98 % 1026.4 hPa 0.0 l/m 0.9 km/h (0 Bft) SO 3.2 C 3.4 C
22.11.2004 08:00 3.6 C 98 % 1026.4 hPa 0.0 l/m 0.0 km/h (0 Bft) N 3.4 C 3.6 C
22.11.2004 09:00 4.2 C 99 % 1026.3 hPa 0.0 l/m 0.0 km/h (0 Bft) N 4.0 C 4.2 C
22.11.2004 10:00 5.2 C 98 % 1026.2 hPa 0.0 l/m 0.1 km/h (0 Bft) N 4.9 C 5.2 C
22.11.2004 11:00 8.2 C 85 % 1025.7 hPa 0.0 l/m 3.5 km/h (1 Bft) S-SO 5.9 C 7.8 C
22.11.2004 12:00 9.6 C 73 % 1024.5 hPa 0.0 l/m 3.4 km/h (1 Bft) S 5.0 C 9.4 C
22.11.2004 13:00 9.5 C 74 % 1024.5 hPa 0.0 l/m 1.2 km/h (1 Bft) W-NW 5.2 C 9.4 C
22.11.2004 14:00 11.2 C 65 % 1024.1 hPa 0.0 l/m 7.3 km/h (2 Bft) W 4.8 C 11.2 C
22.11.2004 15:00 11.0 C 61 % 1023.6 hPa 0.0 l/m 10.9 km/h (2 Bft) W-NW 3.7 C 11.0 C
22.11.2004 16:00 10.0 C 65 % 1024.4 hPa 0.0 l/m 3.9 km/h (1 Bft) SO 3.7 C 9.7 C
22.11.2004 17:00 9.5 C 65 % 1024.5 hPa 0.0 l/m 6.5 km/h (2 Bft) W 3.3 C 8.7 C
22.11.2004 18:00 9.6 C 62 % 1024.5 hPa 0.0 l/m 14.1 km/h (3 Bft) W-NW 2.7 C 7.7 C
22.11.2004 19:00 9.7 C 60 % 1024.5 hPa 0.0 l/m 9.8 km/h (2 Bft) W 2.4 C 8.4 C
22.11.2004 20:00 9.2 C 63 % 1024.5 hPa 0.0 l/m 5.8 km/h (1 Bft) W 2.6 C 8.5 C
22.11.2004 21:00 8.7 C 67 % 1024.6 hPa 0.0 l/m 1.5 km/h (1 Bft) W 3.0 C 8.5 C
22.11.2004 22:00 7.6 C 78 % 1024.8 hPa 0.0 l/m 1.1 km/h (1 Bft) W 4.0 C 7.4 C
22.11.2004 23:00 7.4 C 82 % 1024.8 hPa 0.0 l/m 2.1 km/h (1 Bft) W 4.6 C 7.1 C
23.11.2004 00:00 7.1 C 86 % 1024.8 hPa 0.0 l/m 0.1 km/h (0 Bft) N 4.9 C 7.1 C
23.11.2004 01:00 7.1 C 90 % 1024.8 hPa 0.9 l/m 0.1 km/h (0 Bft) N 5.5 C 7.1 C
23.11.2004 02:00 7.1 C 92 % 1024.8 hPa 0.3 l/m 0.7 km/h (0 Bft) SO 5.9 C 7.0 C
23.11.2004 03:00 7.4 C 94 % 1024.8 hPa 0.0 l/m 4.6 km/h (1 Bft) O-SO 6.5 C 6.7 C
23.11.2004 04:00 7.5 C 94 % 1024.8 hPa 0.0 l/m 4.4 km/h (1 Bft) W 6.6 C 6.8 C
23.11.2004 05:00 7.3 C 93 % 1024.8 hPa 0.0 l/m 6.6 km/h (2 Bft) SO 6.3 C 6.2 C
23.11.2004 06:00 7.1 C 93 % 1024.9 hPa 0.9 l/m 5.5 km/h (1 Bft) O-SO 6.0 C 6.2 C
23.11.2004 07:00 7.3 C 95 % 1025.1 hPa 0.6 l/m 5.5 km/h (1 Bft) W-NW 6.6 C 6.4 C
23.11.2004 08:00 7.6 C 97 % 1026.0 hPa 0.0 l/m 2.7 km/h (1 Bft) NO 7.2 C 7.2 C
23.11.2004 09:00 7.9 C 96 % 1026.8 hPa 0.0 l/m 3.7 km/h (1 Bft) W 7.3 C 7.4 C
23.11.2004 10:00 8.5 C 88 % 1026.7 hPa 0.0 l/m 3.1 km/h (1 Bft) S 6.7 C 8.2 C
23.11.2004 11:00 9.4 C 82 % 1027.1 hPa 0.0 l/m 9.0 km/h (2 Bft) W-NW 6.4 C 8.3 C
23.11.2004 12:00 9.9 C 77 % 1026.5 hPa 0.0 l/m 18.8 km/h (3 Bft) W-NW 6.1 C 7.7 C
23.11.2004 13:00 9.9 C 75 % 1026.5 hPa 0.0 l/m 17.3 km/h (3 Bft) W-NW 5.6 C 7.6 C
23.11.2004 14:00 10.0 C 72 % 1026.7 hPa 0.0 l/m 12.8 km/h (3 Bft) W-NW 5.3 C 9.2 C
23.11.2004 15:00 9.6 C 75 % 1026.7 hPa 0.0 l/m 15.2 km/h (3 Bft) W-NW 5.5 C 7.6 C
23.11.2004 16:00 9.0 C 78 % 1027.4 hPa 0.0 l/m 4.1 km/h (1 Bft) W-NW 5.3 C 8.5 C
23.11.2004 17:00 8.0 C 82 % 1027.8 hPa 0.0 l/m 6.3 km/h (2 Bft) W-NW 5.1 C 7.0 C
23.11.2004 18:00 7.9 C 84 % 1027.9 hPa 0.0 l/m 1.9 km/h (1 Bft) O 5.3 C 7.6 C
23.11.2004 19:00 8.1 C 84 % 1028.7 hPa 0.0 l/m 2.0 km/h (1 Bft) W-NW 5.6 C 7.8 C
23.11.2004 20:00 7.7 C 87 % 1028.9 hPa 0.0 l/m 0.9 km/h (0 Bft) W-NW 5.7 C 7.7 C
23.11.2004 21:00 7.4 C 89 % 1029.0 hPa 0.0 l/m 0.8 km/h (0 Bft) W-NW 5.6 C 7.3 C
23.11.2004 22:00 6.7 C 91 % 1029.1 hPa 0.0 l/m 0.0 km/h (0 Bft) N 5.4 C 6.7 C
23.11.2004 23:00 6.7 C 94 % 1029.1 hPa 0.0 l/m 0.0 km/h (0 Bft) N 5.8 C 6.7 C
24.11.2004 00:00 7.0 C 91 % 1029.6 hPa 0.0 l/m 0.8 km/h (0 Bft) W-NW 5.6 C 6.9 C
24.11.2004 01:00 6.9 C 84 % 1030.0 hPa 0.0 l/m 0.5 km/h (0 Bft) NO 4.4 C 6.9 C
24.11.2004 02:00 7.0 C 78 % 1030.1 hPa 0.0 l/m 0.7 km/h (0 Bft) N-NO 3.5 C 6.9 C
24.11.2004 03:00 6.5 C 80 % 1030.1 hPa 0.0 l/m 0.6 km/h (0 Bft) NO 3.4 C 6.4 C
24.11.2004 04:00 6.2 C 84 % 1030.2 hPa 0.0 l/m 0.2 km/h (0 Bft) O 3.7 C 6.2 C
24.11.2004 05:00 5.6 C 81 % 1030.3 hPa 0.0 l/m 1.4 km/h (1 Bft) O 2.5 C 5.4 C
24.11.2004 06:00 4.3 C 84 % 1030.4 hPa 0.0 l/m 3.3 km/h (1 Bft) O-SO 1.9 C 3.7 C
24.11.2004 07:00 3.8 C 88 % 1031.3 hPa 0.0 l/m 0.4 km/h (0 Bft) O 2.0 C 3.8 C
24.11.2004 08:00 3.8 C 88 % 1031.6 hPa 0.0 l/m 0.0 km/h (0 Bft) N 2.0 C 3.8 C
24.11.2004 09:00 5.0 C 79 % 1032.1 hPa 0.0 l/m 4.4 km/h (1 Bft) O 1.7 C 4.1 C
24.11.2004 10:00 6.1 C 71 % 1031.6 hPa 0.0 l/m 7.2 km/h (2 Bft) O-SO 1.1 C 4.7 C
24.11.2004 11:00 7.7 C 60 % 1031.0 hPa 0.0 l/m 10.5 km/h (2 Bft) O-SO 0.4 C 5.9 C
24.11.2004 12:00 8.1 C 54 % 1030.8 hPa 0.0 l/m 10.3 km/h (2 Bft) O -0.6 C 6.5 C
24.11.2004 13:00 7.9 C 52 % 1029.9 hPa 0.0 l/m 5.2 km/h (1 Bft) O -1.5 C 7.1 C
24.11.2004 14:00 7.7 C 52 % 1030.0 hPa 0.0 l/m 8.5 km/h (2 Bft) O -1.5 C 6.3 C
24.11.2004 15:00 6.9 C 54 % 1030.1 hPa 0.0 l/m 3.8 km/h (1 Bft) O -1.8 C 6.4 C
24.11.2004 16:00 5.6 C 59 % 1030.3 hPa 0.0 l/m 1.8 km/h (1 Bft) O-NO -1.7 C 5.4 C
24.11.2004 17:00 3.8 C 67 % 1030.5 hPa 0.0 l/m 2.4 km/h (1 Bft) O-SO -1.7 C 3.2 C
24.11.2004 18:00 2.6 C 75 % 1030.7 hPa 0.0 l/m 0.1 km/h (0 Bft) O -1.4 C 2.6 C
24.11.2004 19:00 2.3 C 74 % 1030.7 hPa 0.0 l/m 0.9 km/h (0 Bft) O -1.8 C 2.1 C
24.11.2004 20:00 1.4 C 79 % 1030.9 hPa 0.0 l/m 0.2 km/h (0 Bft) N -1.9 C 1.4 C
24.11.2004 21:00 0.9 C 80 % 1030.9 hPa 0.0 l/m 0.4 km/h (0 Bft) O-NO -2.1 C 0.8 C
24.11.2004 22:00 -0.1 C 84 % 1031.1 hPa 0.0 l/m 2.5 km/h (1 Bft) O-SO -2.4 C -0.7 C
24.11.2004 23:00 -1.2 C 87 % 1031.3 hPa 0.0 l/m 0.6 km/h (0 Bft) O-SO -3.1 C -1.2 C
25.11.2004 00:00 -0.7 C 91 % 1031.2 hPa 0.0 l/m 3.1 km/h (1 Bft) O-SO -2.0 C -1.6 C
25.11.2004 01:00 0.8 C 89 % 1030.7 hPa 0.0 l/m 2.0 km/h (1 Bft) O-SO -0.8 C 0.3 C
25.11.2004 02:00 1.2 C 85 % 1029.9 hPa 0.0 l/m 1.6 km/h (1 Bft) NO -1.1 C 0.8 C
25.11.2004 03:00 1.3 C 87 % 1029.8 hPa 0.0 l/m 0.1 km/h (0 Bft) N -0.7 C 1.3 C
25.11.2004 04:00 1.3 C 87 % 1029.8 hPa 0.0 l/m 0.2 km/h (0 Bft) NO -0.7 C 1.3 C
25.11.2004 05:00 1.2 C 86 % 1029.9 hPa 0.0 l/m 0.8 km/h (0 Bft) N-NO -1.0 C 1.1 C
25.11.2004 06:00 1.1 C 87 % 1029.9 hPa 0.0 l/m 0.6 km/h (0 Bft) N-NO -0.8 C 1.0 C
25.11.2004 07:00 1.3 C 86 % 1029.8 hPa 0.0 l/m 0.0 km/h (0 Bft) N -0.8 C 1.3 C
25.11.2004 08:00 1.4 C 85 % 1029.8 hPa 0.0 l/m 0.1 km/h (0 Bft) N -0.8 C 1.4 C
25.11.2004 09:00 1.8 C 83 % 1029.8 hPa 0.0 l/m 0.2 km/h (0 Bft) N -0.8 C 1.8 C
25.11.2004 10:00 2.4 C 80 % 1029.7 hPa 0.0 l/m 0.1 km/h (0 Bft) N -0.6 C 2.4 C
25.11.2004 11:00 2.9 C 78 % 1029.6 hPa 0.0 l/m 0.1 km/h (0 Bft) N -0.6 C 2.9 C
25.11.2004 12:00 3.3 C 76 % 1028.5 hPa 0.0 l/m 0.7 km/h (0 Bft) O -0.5 C 3.3 C
25.11.2004 13:00 3.7 C 74 % 1028.5 hPa 0.0 l/m 0.0 km/h (0 Bft) N -0.5 C 3.7 C
25.11.2004 14:00 4.0 C 73 % 1028.0 hPa 0.0 l/m 0.0 km/h (0 Bft) N -0.3 C 4.0 C
25.11.2004 15:00 3.8 C 73 % 1027.4 hPa 0.0 l/m 0.0 km/h (0 Bft) N -0.6 C 3.8 C
25.11.2004 16:00 1.8 C 82 % 1027.7 hPa 0.0 l/m 0.0 km/h (0 Bft) N -1.0 C 1.8 C
25.11.2004 17:00 0.1 C 88 % 1027.9 hPa 0.0 l/m 0.0 km/h (0 Bft) N -1.6 C 0.1 C
25.11.2004 18:00 -0.6 C 91 % 1028.0 hPa 0.0 l/m 0.2 km/h (0 Bft) O -1.9 C -0.6 C
25.11.2004 19:00 -1.3 C 93 % 1029.1 hPa 0.0 l/m 0.6 km/h (0 Bft) O -2.3 C -1.4 C
25.11.2004 20:00 -1.6 C 95 % 1029.2 hPa 0.0 l/m 1.2 km/h (1 Bft) O -2.4 C -1.8 C
25.11.2004 21:00 -2.1 C 95 % 1029.3 hPa 0.0 l/m 2.2 km/h (1 Bft) O -2.8 C -2.7 C
25.11.2004 22:00 -2.3 C 96 % 1029.3 hPa 0.0 l/m 0.6 km/h (0 Bft) O -2.9 C -2.3 C
25.11.2004 23:00 -1.1 C 98 % 1029.2 hPa 0.0 l/m 1.7 km/h (1 Bft) O -1.4 C -1.5 C
26.11.2004 00:00 -0.5 C 100 % 1029.1 hPa 0.0 l/m 0.0 km/h (0 Bft) N -0.5 C -0.5 C
26.11.2004 01:00 -0.4 C 100 % 1029.0 hPa 0.0 l/m 0.3 km/h (0 Bft) O-SO -0.4 C -0.4 C
26.11.2004 02:00 -0.5 C 100 % 1029.1 hPa 0.0 l/m 1.0 km/h (0 Bft) O-SO -0.5 C -0.6 C
26.11.2004 03:00 -0.5 C 100 % 1029.1 hPa 0.0 l/m 0.0 km/h (0 Bft) N -0.5 C -0.5 C
26.11.2004 04:00 -0.2 C 100 % 1029.0 hPa 0.0 l/m 1.9 km/h (1 Bft) O -0.2 C -0.5 C
26.11.2004 05:00 0.4 C 99 % 1028.9 hPa 0.0 l/m 0.0 km/h (0 Bft) N 0.3 C 0.4 C
26.11.2004 06:00 1.0 C 98 % 1028.8 hPa 0.0 l/m 0.0 km/h (0 Bft) N 0.7 C 1.0 C
26.11.2004 07:00 1.6 C 100 % 1028.8 hPa 0.0 l/m 1.0 km/h (0 Bft) O-SO 1.5 C 1.6 C
26.11.2004 08:00 2.0 C 98 % 1028.7 hPa 0.0 l/m 1.1 km/h (0 Bft) O-SO 1.7 C 1.7 C
26.11.2004 09:00 2.3 C 98 % 1028.6 hPa 0.0 l/m 0.1 km/h (0 Bft) N 2.0 C 2.3 C
26.11.2004 10:00 3.1 C 96 % 1028.5 hPa 0.0 l/m 0.1 km/h (0 Bft) N 2.5 C 3.1 C
26.11.2004 11:00 3.7 C 90 % 1028.4 hPa 0.0 l/m 3.8 km/h (1 Bft) O-SO 2.3 C 2.9 C
26.11.2004 12:00 4.7 C 84 % 1027.3 hPa 0.0 l/m 0.3 km/h (0 Bft) N 2.1 C 4.6 C
26.11.2004 13:00 5.2 C 78 % 1027.2 hPa 0.0 l/m 0.4 km/h (0 Bft) SW 1.7 C 5.2 C
26.11.2004 14:00 5.2 C 79 % 1026.3 hPa 0.0 l/m 0.8 km/h (0 Bft) W 1.9 C 5.1 C
26.11.2004 15:00 5.7 C 79 % 1026.1 hPa 0.0 l/m 0.8 km/h (0 Bft) W-NW 2.3 C 5.5 C
26.11.2004 16:00 4.0 C 85 % 1026.3 hPa 0.0 l/m 0.4 km/h (0 Bft) S-SO 1.7 C 3.9 C
26.11.2004 17:00 3.1 C 92 % 1026.5 hPa 0.0 l/m 2.9 km/h (1 Bft) O-SO 2.0 C 2.4 C
26.11.2004 18:00 4.6 C 95 % 1026.7 hPa 0.0 l/m 6.9 km/h (2 Bft) O-SO 3.9 C 3.1 C
26.11.2004 19:00 3.8 C 94 % 1027.4 hPa 0.0 l/m 0.4 km/h (0 Bft) SO 2.9 C 3.8 C
26.11.2004 20:00 4.5 C 95 % 1027.3 hPa 0.0 l/m 4.7 km/h (1 Bft) SO 3.8 C 3.5 C
26.11.2004 21:00 4.9 C 95 % 1027.2 hPa 0.6 l/m 4.9 km/h (1 Bft) O-SO 4.2 C 3.8 C
26.11.2004 22:00 4.8 C 96 % 1027.2 hPa 0.0 l/m 1.8 km/h (1 Bft) O-SO 4.2 C 4.5 C
26.11.2004 23:00 4.8 C 97 % 1027.2 hPa 0.0 l/m 5.1 km/h (1 Bft) O-SO 4.4 C 3.7 C
27.11.2004 00:00 4.9 C 96 % 1027.2 hPa 0.0 l/m 7.7 km/h (2 Bft) O-SO 4.3 C 3.1 C
27.11.2004 01:00 4.8 C 96 % 1027.3 hPa 0.0 l/m 6.5 km/h (2 Bft) SO 4.1 C 3.3 C
27.11.2004 02:00 4.6 C 96 % 1027.3 hPa 0.0 l/m 7.7 km/h (2 Bft) SO 4.0 C 2.9 C
27.11.2004 03:00 4.5 C 97 % 1027.3 hPa 0.0 l/m 8.1 km/h (2 Bft) SO 4.0 C 2.6 C
27.11.2004 04:00 4.6 C 97 % 1027.3 hPa 0.0 l/m 5.7 km/h (1 Bft) SO 4.2 C 3.4 C
27.11.2004 05:00 4.4 C 97 % 1027.2 hPa 0.0 l/m 0.8 km/h (0 Bft) O-SO 4.0 C 4.3 C
27.11.2004 06:00 4.5 C 98 % 1027.3 hPa 0.0 l/m 4.8 km/h (1 Bft) O-SO 4.2 C 3.5 C
27.11.2004 07:00 4.1 C 98 % 1027.3 hPa 0.0 l/m 3.6 km/h (1 Bft) SO 3.8 C 3.5 C
27.11.2004 08:00 4.5 C 99 % 1027.3 hPa 0.0 l/m 3.7 km/h (1 Bft) SO 4.3 C 3.9 C
27.11.2004 09:00 5.0 C 98 % 1028.0 hPa 0.0 l/m 2.3 km/h (1 Bft) O-SO 4.6 C 4.6 C
27.11.2004 10:00 6.7 C 88 % 1028.0 hPa 0.0 l/m 4.7 km/h (1 Bft) O-SO 5.0 C 6.0 C
27.11.2004 11:00 7.3 C 83 % 1027.9 hPa 0.0 l/m 0.4 km/h (0 Bft) W-SW 4.6 C 7.3 C
27.11.2004 12:00 8.1 C 74 % 1026.8 hPa 0.0 l/m 9.9 km/h (2 Bft) W-NW 3.8 C 6.6 C
27.11.2004 13:00 8.3 C 71 % 1026.5 hPa 0.0 l/m 11.3 km/h (2 Bft) W-NW 3.3 C 6.6 C
27.11.2004 14:00 8.4 C 69 % 1025.7 hPa 0.0 l/m 10.4 km/h (2 Bft) W-NW 3.1 C 6.8 C
27.11.2004 15:00 7.7 C 72 % 1025.8 hPa 0.0 l/m 1.4 km/h (1 Bft) W-NW 3.0 C 7.5 C
27.11.2004 16:00 5.4 C 81 % 1026.1 hPa 0.0 l/m 0.3 km/h (0 Bft) SO 2.4 C 5.4 C
27.11.2004 17:00 4.2 C 89 % 1026.3 hPa 0.0 l/m 5.6 km/h (1 Bft) O-SO 2.5 C 3.1 C
27.11.2004 18:00 2.3 C 92 % 1026.6 hPa 0.0 l/m 2.5 km/h (1 Bft) O-SO 1.1 C 1.8 C
27.11.2004 19:00 1.5 C 95 % 1026.7 hPa 0.0 l/m 0.0 km/h (0 Bft) N 0.7 C 1.5 C
27.11.2004 20:00 0.9 C 96 % 1026.8 hPa 0.0 l/m 1.4 km/h (1 Bft) O-SO 0.4 C 0.8 C
27.11.2004 21:00 0.4 C 96 % 1026.5 hPa 0.0 l/m 0.0 km/h (0 Bft) O-SO -0.1 C 0.4 C
27.11.2004 22:00 0.9 C 98 % 1025.7 hPa 0.0 l/m 0.1 km/h (0 Bft) O-SO 0.6 C 0.9 C
27.11.2004 23:00 0.6 C 100 % 1025.8 hPa 0.0 l/m 0.9 km/h (0 Bft) O-SO 0.6 C 0.6 C
28.11.2004 00:00 0.7 C 100 % 1025.1 hPa 0.0 l/m 0.1 km/h (0 Bft) O-SO 0.7 C 0.7 C
28.11.2004 01:00 0.7 C 100 % 1024.7 hPa 0.0 l/m 0.0 km/h (0 Bft) N 0.7 C 0.7 C
28.11.2004 02:00 0.9 C 100 % 1024.1 hPa 0.0 l/m 3.2 km/h (1 Bft) O-SO 0.9 C 0.5 C
28.11.2004 03:00 1.2 C 100 % 1023.5 hPa 0.0 l/m 3.1 km/h (1 Bft) O-SO 1.2 C 0.6 C
28.11.2004 04:00 1.3 C 100 % 1022.6 hPa 0.0 l/m 4.2 km/h (1 Bft) O-SO 1.3 C 0.4 C
28.11.2004 05:00 1.7 C 99 % 1021.7 hPa 0.0 l/m 0.0 km/h (0 Bft) O-SO 1.6 C 1.7 C
28.11.2004 06:00 1.6 C 99 % 1021.5 hPa 0.0 l/m 1.4 km/h (1 Bft) O-SO 1.4 C 1.5 C
28.11.2004 07:00 1.8 C 100 % 1020.7 hPa 0.0 l/m 0.3 km/h (0 Bft) O-SO 1.8 C 1.8 C
28.11.2004 08:00 2.0 C 100 % 1020.4 hPa 0.0 l/m 0.0 km/h (0 Bft) N 2.0 C 2.0 C
28.11.2004 09:00 2.4 C 100 % 1020.3 hPa 0.0 l/m 0.2 km/h (0 Bft) SO 2.4 C 2.4 C
28.11.2004 10:00 2.9 C 100 % 1020.2 hPa 0.0 l/m 0.1 km/h (0 Bft) N 2.9 C 2.9 C
28.11.2004 11:00 3.6 C 100 % 1019.3 hPa 0.0 l/m 0.0 km/h (0 Bft) N 3.6 C 3.6 C
28.11.2004 12:00 4.0 C 100 % 1018.0 hPa 0.0 l/m 2.2 km/h (1 Bft) O-SO 4.0 C 3.6 C
28.11.2004 13:00 5.2 C 91 % 1017.1 hPa 0.0 l/m 6.8 km/h (2 Bft) O-SO 3.8 C 3.9 C
28.11.2004 14:00 5.7 C 80 % 1016.3 hPa 0.0 l/m 4.0 km/h (1 Bft) O-SO 2.5 C 5.1 C
28.11.2004 15:00 5.2 C 81 % 1015.8 hPa 0.0 l/m 0.3 km/h (0 Bft) O-SO 2.2 C 5.2 C
28.11.2004 16:00 4.3 C 86 % 1015.9 hPa 0.0 l/m 0.2 km/h (0 Bft) W-SW 2.2 C 4.3 C
28.11.2004 17:00 3.6 C 90 % 1015.1 hPa 0.0 l/m 0.5 km/h (0 Bft) SO 2.2 C 3.6 C
28.11.2004 18:00 3.4 C 93 % 1015.0 hPa 0.0 l/m 0.0 km/h (0 Bft) N 2.4 C 3.4 C
28.11.2004 19:00 3.5 C 95 % 1015.0 hPa 0.0 l/m 1.7 km/h (1 Bft) O-SO 2.8 C 3.1 C
28.11.2004 20:00 3.2 C 95 % 1015.0 hPa 0.0 l/m 3.3 km/h (1 Bft) O-SO 2.5 C 2.6 C
28.11.2004 21:00 3.4 C 96 % 1015.0 hPa 0.0 l/m 1.0 km/h (0 Bft) O-SO 2.8 C 3.3 C
28.11.2004 22:00 3.4 C 96 % 1015.0 hPa 0.3 l/m 0.0 km/h (0 Bft) N 2.8 C 3.4 C
28.11.2004 23:00 3.6 C 97 % 1014.9 hPa 0.3 l/m 0.1 km/h (0 Bft) O-SO 3.2 C 3.6 C
Min-Datum _ 25.11.04 24.11.04 28.11.04 - 22.11.04 - 24.11.04 25.11.04
_ Min-Zeit 22:14 12:47 17:08 - 00:02 - 23:32 21:20
Minimum _ -2.8 C 50 % 1014.9 hPa - 0.0 km/h (0 Bft) - -3.7 C -4.7 C
Max-Datum _ 22.11.04 22.11.04 24.11.04 23.11.04 23.11.04 - 23.11.04 22.11.04
_ Max-Zeit 14:17 08:32 09:20 01:17 14:14 - 09:38 14:17
Maximum _ 11.6 C 100 % 1032.5 hPa 0.9 l/m 30.8 km/h
W-NW (5 Bft)
- 7.4 C 11.6 C
Durchschnitt _ 4.3 C 87 % 1026.5 hPa #5.0 l/m 2.7 km/h (1 Bft) O-SO 2.2 C 3.9 C

Durchschnitt Minimum Temp.3.9 C
Durchschnitt Maximum Temp.4.8 C
© Kaiko 2004